Time;durP1;ratioP1;P1;durP2;ratioP2;P2;SDS_P1;SDS_P2;PMS_P1;PMS_P2;Temp;Humidity;BMP_temperature;BMP_pressure;BME280_temperature;BME280_humidity;BME280_pressure;Samples;Min_cycle;Max_cycle;Signal;HPM_P1;HPM_P2
2022/04/22 00:00:48;;;;;;;;;6.25;6.25;;;;;15.33;45.22;99787.66;5066311;28;45649;-82
2022/04/22 00:03:14;;;;;;;;;6.50;6.50;;;;;15.40;45.73;99818.53;5026988;28;45264;-82
2022/04/22 00:05:39;;;;;;;;;6.50;6.50;;;;;15.37;45.93;99813.22;5049166;28;45868;-83
2022/04/22 00:08:05;;;;;;;;;7.75;7.50;;;;;15.54;45.83;99839.72;5045033;28;45399;-83
2022/04/22 00:10:31;;;;;;;;;8.00;8.00;;;;;15.50;46.22;99836.19;5047065;28;45625;-82
2022/04/22 00:12:56;;;;;;;;;8.00;8.00;;;;;15.12;46.67;99770.88;5026975;28;45388;-82
2022/04/22 00:15:22;;;;;;;;;6.00;6.00;;;;;15.20;46.74;99798.22;5047739;28;45421;-83
2022/04/22 00:17:48;;;;;;;;;8.50;8.25;;;;;15.08;46.76;99787.63;5045319;28;45839;-84
2022/04/22 00:20:14;;;;;;;;;9.50;9.50;;;;;14.91;46.83;99762.91;5028702;28;46030;-84
2022/04/22 00:22:41;;;;;;;;;6.00;6.00;;;;;14.89;46.85;99754.97;5050000;28;45756;-85
2022/04/22 00:25:10;;;;;;;;;9.00;8.25;;;;;15.25;46.83;99826.47;5031424;28;45518;-82
2022/04/22 00:27:37;;;;;;;;;6.00;6.00;;;;;15.20;46.73;99823.81;5050963;28;45607;-84
2022/04/22 00:30:07;;;;;;;;;7.75;6.25;;;;;14.96;47.55;99790.25;5031067;28;45795;-84
2022/04/22 00:32:33;;;;;;;;;7.50;7.50;;;;;15.12;47.19;99821.19;5050822;28;45706;-84
2022/04/22 00:35:00;;;;;;;;;8.00;7.75;;;;;14.69;47.04;99752.31;5031801;28;45471;-83
2022/04/22 00:37:25;;;;;;;;;8.75;8.50;;;;;14.71;47.05;99754.94;5032067;28;47124;-84
2022/04/22 00:39:51;;;;;;;;;8.25;7.75;;;;;15.06;47.22;99810.56;5049755;28;45525;-84
2022/04/22 00:42:17;;;;;;;;;7.25;7.25;;;;;14.81;47.32;99780.53;5049951;28;45511;-83
2022/04/22 00:44:42;;;;;;;;;6.50;6.00;;;;;14.88;47.28;99784.97;5031871;28;45705;-85
2022/04/22 00:47:08;;;;;;;;;10.50;8.75;;;;;15.09;47.07;99825.56;5049590;28;46038;-83
2022/04/22 00:49:33;;;;;;;;;10.00;8.75;;;;;14.88;47.03;99782.31;5036477;28;45530;-84
2022/04/22 00:51:58;;;;;;;;;7.00;6.75;;;;;14.74;46.71;99754.09;5045590;28;45642;-84
2022/04/22 00:54:24;;;;;;;;;8.75;7.75;;;;;14.95;46.79;99794.66;5032840;28;45466;-84
2022/04/22 00:56:51;;;;;;;;;11.50;10.75;;;;;14.74;47.10;99759.38;5031458;28;47121;-84
2022/04/22 00:59:17;;;;;;;;;8.00;8.00;;;;;14.68;47.47;99757.59;5050327;28;46388;-83
2022/04/22 01:01:43;;;;;;;;;8.00;8.00;;;;;14.61;47.26;99747.88;5030969;28;45580;-84
2022/04/22 01:09:49;;;;;;;;;8.00;7.75;;;;;14.53;47.41;99747.88;5053882;28;45569;-84
2022/04/22 01:12:18;;;;;;;;;8.00;8.00;;;;;14.68;47.51;99765.53;5051077;28;45808;-84
2022/04/22 01:14:45;;;;;;;;;9.75;9.00;;;;;14.36;47.48;99718.69;5070172;28;45757;-84
2022/04/22 01:17:11;;;;;;;;;7.00;7.00;;;;;14.70;47.79;99777.00;5070535;28;45367;-86
2022/04/22 01:19:37;;;;;;;;;9.50;9.50;;;;;14.54;47.51;99752.28;5072695;28;45775;-84
2022/04/22 01:22:03;;;;;;;;;9.50;9.50;;;;;14.42;47.74;99737.22;5073338;28;45531;-85
2022/04/22 01:24:29;;;;;;;;;9.50;9.00;;;;;14.76;48.25;99795.50;5074066;28;45327;-85
2022/04/22 01:26:56;;;;;;;;;8.00;8.00;;;;;14.43;48.64;99741.66;5055337;28;46398;-84
2022/04/22 01:29:22;;;;;;;;;10.00;10.00;;;;;14.38;48.06;99743.41;5055613;28;45481;-84
2022/04/22 01:31:47;;;;;;;;;8.00;7.50;;;;;14.70;47.65;99788.44;5033825;28;45536;-85
2022/04/22 01:34:13;;;;;;;;;8.25;8.25;;;;;14.71;47.97;99784.91;5031970;28;45525;-85
2022/04/22 01:36:38;;;;;;;;;10.00;9.25;;;;;14.31;47.75;99717.81;5021547;28;48404;-85
2022/04/22 01:39:04;;;;;;;;;10.00;10.00;;;;;14.55;47.75;99755.81;5041417;28;45486;-84
2022/04/22 01:41:29;;;;;;;;;9.25;9.25;;;;;14.61;47.52;99763.75;5073840;28;46140;-85
2022/04/22 01:43:55;;;;;;;;;9.00;9.00;;;;;14.68;47.39;99781.41;5038773;28;45380;-84
2022/04/22 01:46:20;;;;;;;;;9.00;9.00;;;;;14.70;47.93;99784.94;5034944;28;48417;-84
2022/04/22 01:48:46;;;;;;;;;10.00;10.00;;;;;14.66;47.87;99780.50;5035439;28;45476;-84
2022/04/22 01:51:11;;;;;;;;;8.00;8.00;;;;;14.38;47.78;99732.81;5051776;28;45507;-85
2022/04/22 01:53:36;;;;;;;;;9.75;9.75;;;;;14.28;47.87;99720.41;5052933;28;45382;-82
2022/04/22 01:56:03;;;;;;;;;12.50;11.00;;;;;14.49;47.95;99750.50;5052314;28;45392;-83
2022/04/22 01:58:28;;;;;;;;;9.00;8.00;;;;;14.62;48.70;99784.00;5053388;28;45300;-84
2022/04/22 02:00:54;;;;;;;;;10.00;10.00;;;;;14.61;48.14;99776.97;5052093;28;45455;-85
2022/04/22 02:03:19;;;;;;;;;10.00;9.67;;;;;14.31;47.91;99725.72;5051655;28;45644;-85
2022/04/22 02:05:44;;;;;;;;;6.00;5.33;;;;;14.29;48.29;99718.69;5034483;28;47979;-84
2022/04/22 02:08:10;;;;;;;;;8.67;8.00;;;;;14.37;48.63;99740.72;5051249;28;45888;-84
2022/04/22 02:10:35;;;;;;;;;11.25;11.25;;;;;14.01;48.16;99680.72;5042106;28;45476;-84
2022/04/22 02:13:01;;;;;;;;;10.25;9.50;;;;;13.64;49.08;99631.28;5052653;28;45691;-84
2022/04/22 02:15:27;;;;;;;;;9.75;9.00;;;;;14.27;48.51;99728.34;5051829;28;46418;-83
2022/04/22 02:17:53;;;;;;;;;10.00;9.00;;;;;14.13;49.03;99710.69;5052547;28;46032;-85
2022/04/22 02:20:18;;;;;;;;;9.75;9.75;;;;;14.10;48.87;99715.09;5052257;28;45670;-84
2022/04/22 02:22:43;;;;;;;;;8.25;7.50;;;;;14.02;49.01;99706.25;5050987;28;45788;-84
2022/04/22 02:25:09;;;;;;;;;9.75;8.75;;;;;14.01;49.08;99705.38;5049679;28;47202;-84
2022/04/22 02:30:19;;;;;;;;;8.75;8.25;;;;;14.04;49.00;99715.97;5051207;28;45374;-84
2022/04/22 02:32:45;;;;;;;;;8.50;8.50;;;;;14.04;49.60;99720.34;5044045;28;45593;-84
2022/04/22 02:35:10;;;;;;;;;11.00;10.25;;;;;14.08;49.40;99716.84;5033577;28;47811;-84
2022/04/22 02:37:35;;;;;;;;;11.67;10.67;;;;;14.04;49.16;99710.69;5034433;28;45919;-84
2022/04/22 02:40:01;;;;;;;;;9.25;8.75;;;;;14.14;49.19;99740.66;5051797;28;45601;-84
2022/04/22 02:45:28;;;;;;;;;8.00;8.00;;;;;14.23;49.28;99745.94;5051067;28;46287;-85
2022/04/22 02:47:57;;;;;;;;;10.00;10.00;;;;;14.21;49.30;99742.44;5050507;28;45998;-84
2022/04/22 02:50:23;;;;;;;;;8.50;8.25;;;;;13.99;49.00;99711.50;5030636;28;45525;-84
2022/04/22 02:52:48;;;;;;;;;11.75;11.75;;;;;13.83;49.14;99682.38;5031846;28;45541;-84
2022/04/22 02:56:29;;;;;;;;;9.50;8.75;;;;;14.20;49.45;99751.25;5040616;28;45944;-85
2022/04/22 02:58:55;;;;;;;;;9.75;9.00;;;;;13.52;49.14;99656.72;4978137;28;46302;-85
2022/04/22 03:01:21;;;;;;;;;10.75;10.50;;;;;13.69;49.01;99676.16;4991191;28;45388;-84
2022/04/22 03:03:48;;;;;;;;;11.00;10.75;;;;;13.77;49.24;99690.28;5024930;28;45675;-84
2022/04/22 03:06:13;;;;;;;;;12.00;10.00;;;;;14.11;49.25;99743.28;5032602;28;48078;-84
2022/04/22 03:08:39;;;;;;;;;9.00;8.25;;;;;14.14;49.21;99744.19;5051457;28;45690;-84
2022/04/22 03:11:04;;;;;;;;;10.00;10.00;;;;;13.85;49.12;99688.59;5030632;28;45906;-85
2022/04/22 03:13:30;;;;;;;;;10.25;10.25;;;;;13.77;48.63;99677.09;5044090;28;45408;-83
2022/04/22 03:15:57;;;;;;;;;8.25;8.25;;;;;14.13;49.04;99736.22;5051628;28;47132;-84
2022/04/22 03:18:23;;;;;;;;;9.75;9.00;;;;;13.70;49.03;99661.22;5053893;28;45876;-84
2022/04/22 03:20:48;;;;;;;;;10.25;10.00;;;;;13.85;49.32;99688.59;5033736;28;45840;-84
2022/04/22 03:23:13;;;;;;;;;11.50;10.25;;;;;13.91;49.02;99703.56;5041520;28;45608;-85
2022/04/22 03:25:41;;;;;;;;;11.00;10.00;;;;;13.54;48.85;99640.00;5050357;28;47201;-85
2022/04/22 03:28:06;;;;;;;;;12.00;11.25;;;;;13.78;49.28;99685.91;5050380;28;46363;-85
2022/04/22 03:30:34;;;;;;;;;12.25;11.00;;;;;13.91;48.84;99701.81;5043867;28;44907;-84
2022/04/22 03:33:01;;;;;;;;;10.00;9.00;;;;;13.75;49.07;99685.91;5052159;28;45835;-85
2022/04/22 03:35:26;;;;;;;;;12.00;11.25;;;;;13.48;49.13;99629.44;5050696;28;45728;-85
2022/04/22 03:37:52;;;;;;;;;10.50;10.00;;;;;13.68;49.04;99674.41;5040171;28;45668;-83
2022/04/22 03:40:17;;;;;;;;;10.75;10.75;;;;;13.77;49.31;99692.94;5039163;28;45699;-84
2022/04/22 03:42:42;;;;;;;;;11.25;11.25;;;;;13.57;49.49;99670.84;5040439;28;45723;-84
2022/04/22 03:45:08;;;;;;;;;8.50;7.75;;;;;13.88;49.82;99722.03;5052724;28;45351;-84
2022/04/22 03:47:33;;;;;;;;;10.00;9.25;;;;;13.50;49.29;99658.50;5041626;28;45578;-84
2022/04/22 03:49:59;;;;;;;;;11.00;10.25;;;;;13.73;49.60;99709.63;5053242;28;45546;-84
2022/04/22 03:52:24;;;;;;;;;11.50;11.00;;;;;13.79;49.49;99720.25;5047091;28;45528;-84
2022/04/22 03:54:49;;;;;;;;;10.75;10.75;;;;;13.55;49.85;99688.44;5048561;28;46234;-84
2022/04/22 03:59:59;;;;;;;;;10.25;10.00;;;;;13.64;49.63;99705.22;5048903;28;45517;-83
2022/04/22 04:02:24;;;;;;;;;11.75;11.50;;;;;13.52;49.89;99686.66;5048613;28;45482;-84
2022/04/22 04:04:50;;;;;;;;;12.00;11.00;;;;;13.42;50.18;99661.06;5029671;28;47022;-83
2022/04/22 04:07:16;;;;;;;;;10.00;9.25;;;;;13.31;49.92;99653.09;5030498;28;45929;-83
2022/04/22 04:17:53;;;;;;;;;10.50;10.00;;;;;13.61;50.41;99715.75;5069954;28;45508;-83
2022/04/22 04:23:14;;;;;;;;;10.75;10.75;;;;;13.52;50.33;99698.97;5069531;28;45647;-83
2022/04/22 04:25:40;;;;;;;;;10.00;10.00;;;;;13.57;50.51;99719.22;5069889;28;46703;-83
2022/04/22 04:28:09;;;;;;;;;10.00;9.00;;;;;13.42;50.73;99695.38;5068868;28;45742;-83
2022/04/22 04:30:38;;;;;;;;;11.00;11.00;;;;;13.55;50.40;99721.00;5070113;27;45459;-84
2022/04/22 04:33:05;;;;;;;;;10.75;10.25;;;;;13.34;50.31;99684.78;5069604;28;45634;-82
2022/04/22 04:35:31;;;;;;;;;12.00;11.75;;;;;13.09;50.63;99640.59;5069375;28;45645;-83
2022/04/22 04:37:56;;;;;;;;;12.00;12.00;;;;;13.27;50.68;99680.34;5050770;28;45911;-83
2022/04/22 04:40:21;;;;;;;;;11.00;11.00;;;;;13.39;50.59;99709.44;5051044;28;45379;-84
2022/04/22 04:42:47;;;;;;;;;10.25;10.00;;;;;13.24;50.86;99679.44;5069370;27;45533;-83
2022/04/22 04:45:12;;;;;;;;;10.75;10.75;;;;;13.15;50.70;99667.00;5051285;28;47073;-84
2022/04/22 04:47:42;;;;;;;;;12.25;12.25;;;;;13.43;50.69;99707.69;5069733;28;45422;-83
2022/04/22 04:50:09;;;;;;;;;11.00;11.00;;;;;13.18;51.28;99670.56;5050849;28;45510;-83
2022/04/22 04:52:36;;;;;;;;;10.75;10.25;;;;;13.08;51.26;99649.41;5070324;28;45556;-83
2022/04/22 04:55:04;;;;;;;;;11.00;10.25;;;;;13.26;51.08;99689.13;5067823;28;48254;-82
2022/04/22 04:57:29;;;;;;;;;12.25;11.50;;;;;13.12;51.09;99664.38;5051617;28;46069;-82
2022/04/22 04:59:54;;;;;;;;;12.00;11.33;;;;;13.24;51.34;99684.69;5069405;28;45468;-83
2022/04/22 05:02:20;;;;;;;;;11.00;11.00;;;;;13.40;51.39;99705.06;5069535;28;45272;-83
2022/04/22 05:04:45;;;;;;;;;10.75;10.25;;;;;13.29;51.39;99688.25;5068032;28;47120;-83
2022/04/22 05:07:11;;;;;;;;;14.75;14.50;;;;;13.23;51.21;99675.03;5051225;28;45546;-83
2022/04/22 05:09:36;;;;;;;;;14.50;13.75;;;;;13.05;51.61;99638.81;5067872;27;45990;-83
2022/04/22 05:12:01;;;;;;;;;13.33;13.33;;;;;13.00;51.41;99629.97;5060497;28;45858;-83
2022/04/22 05:14:27;;;;;;;;;10.00;9.75;;;;;13.19;51.14;99660.91;5069783;28;45344;-83
2022/04/22 05:16:54;;;;;;;;;11.75;11.75;;;;;12.99;51.46;99634.38;5085208;27;45623;-84
2022/04/22 05:19:21;;;;;;;;;12.50;12.50;;;;;12.78;51.34;99587.66;5089570;27;45647;-83
2022/04/22 05:21:46;;;;;;;;;14.00;12.50;;;;;13.01;51.73;99632.66;5070566;27;45650;-83
2022/04/22 05:24:11;;;;;;;;;11.33;10.67;;;;;13.05;51.58;99633.53;5088906;27;48597;-84
2022/04/22 05:26:37;;;;;;;;;14.50;12.00;;;;;13.07;51.83;99634.44;5088849;27;45587;-83
2022/04/22 05:29:03;;;;;;;;;13.25;13.25;;;;;12.98;51.33;99618.56;5073233;27;45382;-83
2022/04/22 05:34:12;;;;;;;;;14.00;14.00;;;;;13.23;51.84;99661.84;5068556;28;45716;-84
2022/04/22 05:36:37;;;;;;;;;13.50;13.50;;;;;13.01;51.83;99627.38;5068584;28;45405;-84
2022/04/22 05:39:07;;;;;;;;;9.67;9.67;;;;;13.05;51.78;99644.09;5067379;28;45322;-83
2022/04/22 05:41:32;;;;;;;;;12.00;11.00;;;;;13.14;51.95;99642.38;5067862;28;45391;-85
2022/04/22 05:43:57;;;;;;;;;14.50;14.50;;;;;13.34;52.18;99683.88;5050906;28;48142;-84
2022/04/22 05:46:23;;;;;;;;;15.67;14.33;;;;;13.06;51.85;99637.97;5069031;28;45720;-84
2022/04/22 05:48:48;;;;;;;;;18.00;17.00;;;;;12.49;52.00;99541.75;5050866;28;45553;-83
2022/04/22 05:51:15;;;;;;;;;10.75;9.75;;;;;13.41;52.24;99702.44;5069151;28;45453;-83
2022/04/22 05:53:44;;;;;;;;;17.00;15.00;;;;;13.21;51.81;99667.09;5068959;28;46376;-83
2022/04/22 05:56:10;;;;;;;;;15.50;14.50;;;;;13.10;52.37;99639.72;5068413;28;46150;-83
2022/04/22 05:58:35;;;;;;;;;13.50;10.50;;;;;13.00;52.46;99617.69;5069489;28;45409;-82
2022/04/22 06:01:00;;;;;;;;;11.00;11.00;;;;;13.04;52.49;99637.94;5050751;28;45600;-84
2022/04/22 06:03:26;;;;;;;;;11.00;11.00;;;;;13.02;52.73;99631.78;5050478;28;48102;-83
2022/04/22 06:05:51;;;;;;;;;16.25;16.00;;;;;12.91;52.59;99615.88;5054499;27;46122;-84
2022/04/22 06:11:00;;;;;;;;;16.75;16.75;;;;;13.07;52.61;99626.53;5071337;28;45711;-84
2022/04/22 06:13:26;;;;;;;;;15.25;14.50;;;;;13.52;52.17;99693.69;5051944;28;45429;-83
2022/04/22 06:15:51;;;;;;;;;14.75;14.50;;;;;13.32;52.48;99660.13;5050274;28;45692;-83
2022/04/22 06:18:16;;;;;;;;;17.75;15.75;;;;;13.40;52.47;99670.75;5049295;28;45708;-83
2022/04/22 06:20:42;;;;;;;;;15.50;14.00;;;;;13.29;52.51;99643.41;5067209;28;45882;-84
2022/04/22 06:23:07;;;;;;;;;14.75;14.25;;;;;13.51;52.72;99676.09;5049876;28;47342;-84
2022/04/22 06:25:33;;;;;;;;;16.25;15.75;;;;;13.40;52.95;99657.56;5053511;28;45756;-83
2022/04/22 06:27:59;;;;;;;;;17.50;17.00;;;;;13.49;52.58;99659.34;5071507;28;45491;-83
2022/04/22 06:30:24;;;;;;;;;15.75;14.75;;;;;13.53;52.53;99662.00;5053871;28;45384;-83
2022/04/22 06:32:52;;;;;;;;;15.75;15.25;;;;;13.46;52.81;99638.22;5070902;28;46351;-83
2022/04/22 06:35:18;;;;;;;;;16.00;16.00;;;;;13.75;52.50;99688.53;5053689;28;45964;-83
2022/04/22 06:37:46;;;;;;;;;18.25;17.25;;;;;13.58;52.45;99652.34;5053076;28;45628;-82
2022/04/22 06:45:48;;;;;;;;;16.50;16.00;;;;;13.77;52.62;99666.53;5051576;28;45360;-82
2022/04/22 06:48:33;;;;;;;;;17.75;16.75;;;;;13.87;52.44;99670.97;5032728;28;45784;-83
2022/04/22 06:51:00;;;;;;;;;19.50;18.00;;;;;13.77;52.45;99658.59;5051452;28;46019;-83
2022/04/22 06:53:27;;;;;;;;;18.75;17.75;;;;;13.73;52.38;99655.94;5051582;28;46166;-82
2022/04/22 06:55:53;;;;;;;;;20.25;19.00;;;;;14.00;52.31;99698.31;5032756;28;45588;-83
2022/04/22 06:58:20;;;;;;;;;13.50;12.00;;;;;13.76;52.31;99651.56;5051559;28;45789;-83
2022/04/22 07:00:47;;;;;;;;;16.75;16.00;;;;;13.89;52.34;99658.66;5033369;28;45841;-83
2022/04/22 07:03:14;;;;;;;;;19.25;19.25;;;;;13.71;52.18;99629.53;5050784;28;45546;-84
2022/04/22 07:05:41;;;;;;;;;18.50;18.50;;;;;14.09;51.96;99694.84;5045979;28;46242;-83
2022/04/22 07:08:13;;;;;;;;;18.75;18.00;;;;;13.80;51.92;99632.22;5048744;28;45345;-84
2022/04/22 07:10:40;;;;;;;;;19.00;19.00;;;;;13.92;52.54;99647.22;5065812;28;45488;-84
2022/04/22 07:13:06;;;;;;;;;17.25;16.75;;;;;13.93;52.23;99656.91;5069405;28;47476;-84
2022/04/22 07:15:32;;;;;;;;;19.75;19.00;;;;;13.90;52.19;99636.66;5070654;28;45484;-84
2022/04/22 07:17:58;;;;;;;;;18.50;17.25;;;;;14.16;52.18;99691.34;5070236;28;45433;-84
2022/04/22 07:20:23;;;;;;;;;20.00;19.00;;;;;13.86;52.10;99623.44;5070921;28;45399;-84
2022/04/22 07:22:49;;;;;;;;;20.25;19.25;;;;;14.15;52.00;99671.06;5055051;28;45547;-84
2022/04/22 07:25:16;;;;;;;;;20.75;19.50;;;;;14.20;51.82;99678.13;5049972;28;45909;-83
2022/04/22 07:27:44;;;;;;;;;15.50;15.50;;;;;14.33;52.28;99694.88;5051133;28;45448;-84
2022/04/22 07:30:12;;;;;;;;;22.75;20.00;;;;;14.19;53.00;99654.34;5049984;28;45591;-85
2022/04/22 07:32:38;;;;;;;;;18.25;17.75;;;;;14.36;52.38;99675.53;5050312;28;45637;-84
2022/04/22 07:35:11;;;;;;;;;19.00;18.00;;;;;14.14;51.60;99632.31;5032073;28;45654;-83
2022/04/22 07:37:38;;;;;;;;;20.75;17.50;;;;;14.22;52.09;99654.34;5050828;28;45703;-84
2022/04/22 07:40:04;;;;;;;;;19.25;18.00;;;;;14.43;52.19;99669.34;5048688;28;45840;-83
2022/04/22 07:42:33;;;;;;;;;19.50;18.75;;;;;14.60;51.62;99685.28;5032644;28;47528;-84
2022/04/22 07:47:47;;;;;;;;;20.75;19.25;;;;;14.32;51.80;99627.03;5050627;28;45724;-84
2022/04/22 07:50:13;;;;;;;;;21.50;19.50;;;;;14.49;51.81;99647.38;5032203;28;45826;-83
2022/04/22 07:52:39;;;;;;;;;23.25;22.25;;;;;14.03;52.48;99565.34;5050257;28;45590;-84
2022/04/22 07:55:06;;;;;;;;;20.00;19.50;;;;;14.49;51.35;99645.63;5049603;28;45805;-84
2022/04/22 07:57:31;;;;;;;;;22.50;21.00;;;;;13.95;51.55;99544.22;5050757;28;45944;-83
2022/04/22 08:00:00;;;;;;;;;20.50;19.50;;;;;14.49;51.35;99650.91;5060083;28;45735;-83
2022/04/22 08:02:25;;;;;;;;;22.00;19.75;;;;;14.56;51.77;99646.50;5029613;28;46712;-84
2022/04/22 08:04:51;;;;;;;;;18.00;17.25;;;;;14.42;51.97;99612.97;5021578;28;45390;-84
2022/04/22 08:07:18;;;;;;;;;21.25;19.25;;;;;14.84;51.75;99673.84;5031832;28;45443;-82
2022/04/22 08:09:45;;;;;;;;;21.75;20.50;;;;;14.75;51.61;99655.34;5049094;28;45400;-83
2022/04/22 08:12:12;;;;;;;;;16.00;15.50;;;;;14.88;52.24;99659.75;5030636;28;48081;-82
2022/04/22 08:14:38;;;;;;;;;17.00;17.00;;;;;14.69;52.01;99608.63;5049931;28;45542;-84
2022/04/22 08:17:03;;;;;;;;;20.25;20.25;;;;;14.87;51.37;99624.44;5049236;28;45644;-84
2022/04/22 08:19:29;;;;;;;;;22.00;20.50;;;;;14.83;51.46;99616.53;5050095;28;45633;-84
2022/04/22 08:21:55;;;;;;;;;17.50;17.25;;;;;14.98;51.77;99624.47;5049218;28;46450;-83
2022/04/22 08:24:20;;;;;;;;;19.00;18.00;;;;;14.99;51.40;99617.41;5047561;28;45466;-84
2022/04/22 08:26:46;;;;;;;;;20.75;20.25;;;;;15.10;50.52;99639.44;5049268;28;45586;-84
2022/04/22 08:29:11;;;;;;;;;19.00;19.00;;;;;15.23;50.50;99657.06;5048748;28;45387;-83
2022/04/22 08:31:37;;;;;;;;;18.50;17.50;;;;;15.20;50.43;99646.47;5031639;28;47225;-83
2022/04/22 08:34:03;;;;;;;;;19.25;18.25;;;;;14.95;50.45;99600.63;5049635;28;45563;-84
2022/04/22 08:36:29;;;;;;;;;17.00;16.75;;;;;15.22;50.99;99627.06;5050247;28;45447;-83
2022/04/22 08:38:57;;;;;;;;;19.25;17.50;;;;;15.13;50.73;99613.84;5049179;28;45708;-83
2022/04/22 08:41:22;;;;;;;;;19.75;19.00;;;;;15.45;50.41;99642.00;5031459;28;47096;-83
2022/04/22 08:43:51;;;;;;;;;17.25;16.25;;;;;15.17;50.43;99585.59;5031397;28;45485;-82
2022/04/22 08:51:47;;;;;;;;;14.50;12.75;;;;;15.26;49.94;99574.97;5049653;28;45738;-84
2022/04/22 08:54:14;;;;;;;;;17.00;16.25;;;;;15.09;49.96;99543.28;5030801;28;45701;-83
2022/04/22 08:56:40;;;;;;;;;19.00;17.50;;;;;15.49;49.48;99601.38;5047525;28;45836;-84
2022/04/22 08:59:06;;;;;;;;;17.00;16.50;;;;;15.40;49.70;99591.69;5057798;28;45494;-84
2022/04/22 09:01:31;;;;;;;;;18.25;18.00;;;;;15.61;49.35;99622.50;5048844;28;45574;-83
2022/04/22 09:03:57;;;;;;;;;19.00;17.75;;;;;15.44;48.96;99585.50;5033469;28;46706;-83
2022/04/22 09:06:25;;;;;;;;;19.25;18.00;;;;;15.63;49.28;99614.56;5029506;28;45639;-84
2022/04/22 09:08:51;;;;;;;;;16.25;16.00;;;;;15.89;49.94;99643.63;5028072;28;45720;-83
2022/04/22 09:11:17;;;;;;;;;17.00;16.25;;;;;15.84;49.51;99629.53;5010731;28;48126;-83
2022/04/22 09:13:42;;;;;;;;;19.25;17.25;;;;;15.77;48.96;99601.31;5011004;28;45988;-83
2022/04/22 09:16:18;;;;;;;;;17.25;17.25;;;;;15.97;48.81;99626.81;5031107;28;45477;-83
2022/04/22 09:18:45;;;;;;;;;20.75;19.25;;;;;15.88;48.27;99605.66;5029101;28;45336;-83
2022/04/22 09:21:17;;;;;;;;;19.75;19.00;;;;;16.09;48.13;99625.84;5028616;28;45667;-83
2022/04/22 09:23:45;;;;;;;;;18.25;17.25;;;;;15.92;48.71;99602.09;5026588;28;45819;-83
2022/04/22 09:26:22;;;;;;;;;19.00;17.50;;;;;15.98;48.24;99607.38;5028826;28;45555;-83
2022/04/22 09:29:02;;;;;;;;;17.75;17.00;;;;;15.94;48.03;99571.16;5047865;28;45467;-82
2022/04/22 09:31:29;;;;;;;;;15.75;14.50;;;;;16.02;48.40;99581.72;5030787;28;47936;-82
2022/04/22 09:33:56;;;;;;;;;17.25;16.50;;;;;16.10;48.09;99586.97;5048811;28;46016;-82
2022/04/22 09:44:51;;;;;;;;;14.75;14.00;;;;;16.34;47.61;99589.44;5052293;28;45920;-84
2022/04/22 09:47:18;;;;;;;;;16.00;16.00;;;;;16.38;46.94;99585.00;5051244;28;45527;-83
2022/04/22 09:49:44;;;;;;;;;6.00;6.00;;;;;16.44;46.89;99583.19;5034048;28;45313;-83
2022/04/22 09:52:09;;;;;;;;;19.00;18.00;;;;;16.65;47.36;99615.72;5033678;28;47465;-83
2022/04/22 09:54:34;;;;;;;;;14.75;14.75;;;;;16.56;47.05;99590.19;5037084;28;45447;-83
2022/04/22 09:57:01;;;;;;;;;19.25;18.75;;;;;16.49;46.48;99570.75;5051563;28;45344;-84
2022/04/22 09:59:28;;;;;;;;;15.25;15.25;;;;;16.50;46.55;99546.03;5051183;28;45623;-84
2022/04/22 10:01:54;;;;;;;;;13.75;13.00;;;;;16.91;46.67;99592.53;5051067;28;45713;-83
2022/04/22 10:04:21;;;;;;;;;14.75;14.50;;;;;16.92;45.25;99594.31;5052581;28;45426;-84
2022/04/22 10:06:47;;;;;;;;;13.75;13.25;;;;;17.00;45.59;99600.41;5050201;28;45696;-83
2022/04/22 10:09:17;;;;;;;;;15.00;14.00;;;;;16.97;46.25;99588.94;5051348;28;45699;-83
2022/04/22 10:11:45;;;;;;;;;12.25;12.25;;;;;16.87;45.60;99551.00;5062246;28;47999;-83
2022/04/22 10:14:12;;;;;;;;;14.50;13.50;;;;;17.11;45.52;99573.75;5033431;28;45928;-84
2022/04/22 10:16:38;;;;;;;;;12.00;11.00;;;;;17.22;45.10;99581.59;5033305;28;45403;-84
2022/04/22 10:19:05;;;;;;;;;12.00;11.75;;;;;17.34;44.93;99596.50;5051975;28;45373;-83
2022/04/22 10:21:31;;;;;;;;;12.75;12.25;;;;;17.27;44.69;99566.50;5051761;28;46560;-83
2022/04/22 10:23:57;;;;;;;;;12.00;12.00;;;;;17.19;43.96;99545.34;5032623;28;45426;-83
2022/04/22 10:26:23;;;;;;;;;13.50;12.00;;;;;17.56;42.87;99592.72;5052069;28;45365;-84
2022/04/22 10:28:49;;;;;;;;;11.75;11.25;;;;;17.52;43.51;99588.34;5051870;28;45528;-83
2022/04/22 10:31:16;;;;;;;;;11.50;11.50;;;;;17.60;42.57;99593.56;5051350;28;45710;-83
2022/04/22 10:33:44;;;;;;;;;12.00;11.50;;;;;17.29;43.04;99538.16;5033722;28;46158;-83
2022/04/22 10:36:18;;;;;;;;;12.00;11.50;;;;;17.50;42.79;99553.81;5033256;28;45832;-82
2022/04/22 10:38:50;;;;;;;;;11.25;11.25;;;;;17.52;41.92;99553.78;5033110;28;45518;-82
2022/04/22 10:41:17;;;;;;;;;11.25;11.25;;;;;17.74;42.67;99576.59;5051403;28;45427;-84
2022/04/22 10:43:45;;;;;;;;;10.25;10.25;;;;;17.42;42.84;99507.88;5033397;28;45646;-83
2022/04/22 10:49:17;;;;;;;;;11.00;11.00;;;;;17.99;42.33;99576.25;5048335;28;46173;-83
2022/04/22 10:51:59;;;;;;;;;11.50;11.00;;;;;18.11;42.19;99575.16;5049550;28;46494;-84
2022/04/22 10:54:58;;;;;;;;;11.00;10.00;;;;;18.18;41.98;99571.53;5050945;28;45883;-84
2022/04/22 10:57:32;;;;;;;;;8.25;8.25;;;;;18.13;41.85;99546.75;5049504;28;45519;-84
2022/04/22 11:00:07;;;;;;;;;11.00;10.50;;;;;18.33;41.48;99575.75;5050518;28;45563;-83
2022/04/22 11:02:34;;;;;;;;;11.00;11.00;;;;;18.28;41.73;99558.06;5032863;28;48183;-83
2022/04/22 11:05:22;;;;;;;;;11.25;11.00;;;;;18.40;41.58;99566.75;5051069;28;46133;-83
2022/04/22 11:07:51;;;;;;;;;8.50;8.50;;;;;18.44;41.80;99566.69;5042469;28;45489;-83
2022/04/22 11:10:25;;;;;;;;;10.00;9.50;;;;;18.51;41.67;99552.34;5058143;27;45717;-83
2022/04/22 11:12:58;;;;;;;;;10.50;10.50;;;;;18.58;42.18;99528.31;5091438;27;45418;-83
2022/04/22 11:15:42;;;;;;;;;9.75;9.00;;;;;19.04;41.66;99557.66;5091021;27;45832;-83
2022/04/22 11:18:12;;;;;;;;;10.25;9.50;;;;;18.84;40.99;99504.78;5091162;27;45441;-83
2022/04/22 11:21:00;;;;;;;;;10.75;10.50;;;;;19.15;40.63;99549.47;5054882;28;46291;-83
2022/04/22 11:23:35;;;;;;;;;12.00;10.25;;;;;18.95;40.13;99521.44;5020841;28;45845;-83
2022/04/22 11:26:01;;;;;;;;;11.00;10.75;;;;;18.95;40.70;99528.53;5070830;28;46082;-83
2022/04/22 11:28:29;;;;;;;;;12.50;10.25;;;;;19.12;39.81;99554.88;5053120;28;45489;-83
2022/04/22 11:30:56;;;;;;;;;11.00;11.00;;;;;18.72;40.48;99476.63;5052654;28;45802;-83
2022/04/22 11:33:27;;;;;;;;;8.00;8.00;;;;;18.98;39.67;99518.72;5052531;28;47291;-83
2022/04/22 11:35:56;;;;;;;;;11.25;10.75;;;;;19.11;39.22;99537.09;5070614;28;45933;-84
2022/04/22 11:38:22;;;;;;;;;10.25;10.25;;;;;18.97;39.34;99519.63;5052826;28;45793;-84
2022/04/22 11:40:49;;;;;;;;;11.00;10.50;;;;;18.87;38.91;99496.75;5052551;28;45541;-83
2022/04/22 11:43:15;;;;;;;;;10.25;9.75;;;;;19.02;38.88;99525.75;5052370;28;47179;-83
2022/04/22 11:45:46;;;;;;;;;10.50;9.00;;;;;19.06;39.46;99530.13;5070848;28;45521;-83
2022/04/22 11:48:13;;;;;;;;;10.75;10.00;;;;;19.18;39.31;99531.66;5076465;27;45426;-83
2022/04/22 11:50:40;;;;;;;;;11.00;9.75;;;;;19.26;39.55;99531.47;5088529;27;45600;-83
2022/04/22 11:53:20;;;;;;;;;8.00;8.00;;;;;19.17;39.57;99497.06;5085305;27;46636;-83
2022/04/22 11:55:47;;;;;;;;;8.50;8.50;;;;;19.44;39.85;99523.09;5051853;28;45980;-83
2022/04/22 11:58:16;;;;;;;;;9.50;9.25;;;;;19.20;39.77;99473.00;5051882;28;45514;-83
2022/04/22 12:06:19;;;;;;;;;10.25;10.00;;;;;19.63;39.52;99504.09;5083328;27;45651;-83
2022/04/22 12:08:52;;;;;;;;;9.25;7.00;;;;;19.56;38.61;99479.34;5072001;27;45661;-84
2022/04/22 12:11:17;;;;;;;;;11.25;10.50;;;;;19.68;38.66;99502.22;5071965;27;45588;-83
2022/04/22 12:13:43;;;;;;;;;9.00;8.00;;;;;19.64;38.66;99482.72;5089676;27;46234;-83
2022/04/22 12:16:08;;;;;;;;;9.00;9.00;;;;;19.51;38.72;99452.78;5089869;27;45473;-83
2022/04/22 12:18:35;;;;;;;;;9.50;8.25;;;;;19.93;38.85;99506.06;5076228;27;45560;-83
2022/04/22 12:21:01;;;;;;;;;9.25;7.75;;;;;19.99;39.21;99499.69;5069769;28;45474;-82
2022/04/22 12:23:38;;;;;;;;;8.00;7.25;;;;;19.93;39.15;99458.06;5070129;28;45826;-84